Time;durP1;ratioP1;P1;durP2;ratioP2;P2;SDS_P1;SDS_P2;PMS_P1;PMS_P2;Temp;Humidity;BMP_temperature;BMP_pressure;BME280_temperature;BME280_humidity;BME280_pressure;Samples;Min_cycle;Max_cycle;Signal;HPM_P1;HPM_P2
2023/08/25 00:00:31;;;;;;;;;;;24.70;99.90;;;;;;5098046;28;19969;-72
2023/08/25 00:02:56;;;;;;;;;;;24.70;99.90;;;;;;5097626;28;19971;-71
2023/08/25 00:05:22;;;;;;;;;;;24.70;99.90;;;;;;5098220;28;19904;-72
2023/08/25 00:07:48;;;;;;;;;;;24.60;99.90;;;;;;5097940;28;19908;-72
2023/08/25 00:10:14;;;;;;;;;;;24.60;99.90;;;;;;5097840;28;19904;-70
2023/08/25 00:12:39;;;;;;;;;;;24.60;99.90;;;;;;5097973;28;19994;-71
2023/08/25 00:15:05;;;;;;;;;;;24.60;99.90;;;;;;5097792;28;19908;-71
2023/08/25 00:17:31;;;;;;;;;;;24.60;99.90;;;;;;5097697;28;19908;-70
2023/08/25 00:19:57;;;;;;;;;;;24.60;99.90;;;;;;5097813;28;19908;-71
2023/08/25 00:22:23;;;;;;;;;;;24.50;99.90;;;;;;5090257;28;19904;-71
2023/08/25 00:24:48;;;;;;;;;;;24.50;99.90;;;;;;5097485;28;20383;-71
2023/08/25 00:27:14;;;;;;;;;;;24.50;99.90;;;;;;5095842;28;19971;-71
2023/08/25 00:29:39;;;;;;;;;;;24.50;99.90;;;;;;5097525;28;19955;-72
2023/08/25 00:32:05;;;;;;;;;;;24.50;99.90;;;;;;5097530;28;19979;-71
2023/08/25 00:34:31;;;;;;;;;;;24.50;99.90;;;;;;5096323;28;19975;-72
2023/08/25 00:36:57;;;;;;;;;;;24.40;99.90;;;;;;5097338;28;19944;-72
2023/08/25 00:39:22;;;;;;;;;;;24.50;99.90;;;;;;5097518;28;19915;-72
2023/08/25 00:41:48;;;;;;;;;;;24.40;99.90;;;;;;5097374;28;20470;-71
2023/08/25 00:44:13;;;;;;;;;;;24.40;99.90;;;;;;5097208;28;20387;-71
2023/08/25 00:46:39;;;;;;;;;;;24.30;99.90;;;;;;5083228;28;20374;-71
2023/08/25 00:49:05;;;;;;;;;;;24.40;99.90;;;;;;5096923;28;19990;-71
2023/08/25 00:51:30;;;;;;;;;;;24.30;99.90;;;;;;5095867;28;19911;-72
2023/08/25 00:53:56;;;;;;;;;;;24.30;99.90;;;;;;5097163;28;19977;-71
2023/08/25 00:56:22;;;;;;;;;;;24.30;99.90;;;;;;5096820;28;19961;-72
2023/08/25 00:58:48;;;;;;;;;;;24.20;99.90;;;;;;5096862;28;19907;-72
2023/08/25 01:01:14;;;;;;;;;;;24.20;99.90;;;;;;5096911;28;20376;-72
2023/08/25 01:03:40;;;;;;;;;;;24.20;99.90;;;;;;5097155;28;19939;-72
2023/08/25 01:06:06;;;;;;;;;;;24.20;99.90;;;;;;5095337;28;19924;-72
2023/08/25 01:08:31;;;;;;;;;;;24.10;99.90;;;;;;5095506;28;19908;-71
2023/08/25 01:11:09;;;;;;;;;;;24.20;99.90;;;;;;5096618;28;19908;-72
2023/08/25 01:13:53;;;;;;;;;;;24.20;99.90;;;;;;5096579;28;19904;-72
2023/08/25 01:16:25;;;;;;;;;;;24.20;99.90;;;;;;5096894;28;19912;-71
2023/08/25 01:18:51;;;;;;;;;;;24.20;99.90;;;;;;5096551;28;19957;-71
2023/08/25 01:21:16;;;;;;;;;;;24.20;99.90;;;;;;5095574;28;19904;-71
2023/08/25 01:23:51;;;;;;;;;;;24.20;99.90;;;;;;5096459;28;19904;-71
2023/08/25 01:26:17;;;;;;;;;;;24.20;99.90;;;;;;5094895;28;19930;-72
2023/08/25 01:28:42;;;;;;;;;;;24.20;99.90;;;;;;5096123;28;19908;-72
2023/08/25 01:31:08;;;;;;;;;;;24.20;99.90;;;;;;5096607;28;20010;-73
2023/08/25 01:33:34;;;;;;;;;;;24.20;99.90;;;;;;5096401;28;20347;-72
2023/08/25 01:36:13;;;;;;;;;;;24.20;99.90;;;;;;5096499;28;20065;-70
2023/08/25 01:38:59;;;;;;;;;;;24.20;99.90;;;;;;5095982;28;19908;-72
2023/08/25 01:41:45;;;;;;;;;;;24.20;99.90;;;;;;5096028;28;19908;-71
2023/08/25 01:44:12;;;;;;;;;;;24.10;99.90;;;;;;5095081;28;20733;-72
2023/08/25 01:46:40;;;;;;;;;;;24.10;99.90;;;;;;5096160;28;19919;-73
2023/08/25 01:49:06;;;;;;;;;;;24.10;99.90;;;;;;5095954;28;19908;-72
2023/08/25 01:51:32;;;;;;;;;;;24.10;99.90;;;;;;5095878;28;19911;-71
2023/08/25 01:53:57;;;;;;;;;;;24.00;99.90;;;;;;5096127;28;19904;-72
2023/08/25 01:56:23;;;;;;;;;;;24.00;99.90;;;;;;5094391;28;20414;-73
2023/08/25 01:58:49;;;;;;;;;;;24.00;99.90;;;;;;5083191;28;19904;-72
2023/08/25 02:01:15;;;;;;;;;;;24.00;99.90;;;;;;5096030;28;19908;-72
2023/08/25 02:03:40;;;;;;;;;;;24.00;99.90;;;;;;5095957;28;19950;-71
2023/08/25 02:06:07;;;;;;;;;;;23.90;99.90;;;;;;5095913;28;19904;-72
2023/08/25 02:08:33;;;;;;;;;;;23.90;99.90;;;;;;5095326;28;19942;-72
2023/08/25 02:10:59;;;;;;;;;;;23.90;99.90;;;;;;5095655;28;19919;-71
2023/08/25 02:13:24;;;;;;;;;;;23.90;99.90;;;;;;5095609;28;19912;-71
2023/08/25 02:15:51;;;;;;;;;;;23.90;99.90;;;;;;5095679;28;19908;-72
2023/08/25 02:18:16;;;;;;;;;;;23.90;99.90;;;;;;5094375;28;19922;-71
2023/08/25 02:20:42;;;;;;;;;;;23.90;99.90;;;;;;5092900;28;19904;-72
2023/08/25 02:23:08;;;;;;;;;;;23.90;99.90;;;;;;5095824;28;19912;-72
2023/08/25 02:25:33;;;;;;;;;;;23.90;99.90;;;;;;5095689;28;19920;-72
2023/08/25 02:27:59;;;;;;;;;;;24.00;99.90;;;;;;5095635;28;20388;-71
2023/08/25 02:30:25;;;;;;;;;;;24.00;99.90;;;;;;5095628;28;19998;-72
2023/08/25 02:32:50;;;;;;;;;;;24.00;99.90;;;;;;5094366;28;19908;-72
2023/08/25 02:35:16;;;;;;;;;;;24.10;99.90;;;;;;5095794;28;19915;-72
2023/08/25 02:37:58;;;;;;;;;;;24.00;99.90;;;;;;5094405;28;19904;-72
2023/08/25 02:40:23;;;;;;;;;;;24.00;99.90;;;;;;5083101;28;20326;-71
2023/08/25 02:42:49;;;;;;;;;;;24.00;99.90;;;;;;5095446;28;19953;-71
2023/08/25 02:45:14;;;;;;;;;;;24.10;99.90;;;;;;5095399;28;19965;-71
2023/08/25 02:47:40;;;;;;;;;;;24.10;99.90;;;;;;5095717;28;19999;-72
2023/08/25 02:50:06;;;;;;;;;;;24.00;99.90;;;;;;5095480;28;20383;-72
2023/08/25 02:52:31;;;;;;;;;;;24.00;99.90;;;;;;5095653;28;20380;-72
2023/08/25 02:54:57;;;;;;;;;;;24.00;99.90;;;;;;5094189;28;19904;-72
2023/08/25 02:57:22;;;;;;;;;;;24.00;99.90;;;;;;5082168;28;19904;-72
2023/08/25 02:59:48;;;;;;;;;;;24.00;99.90;;;;;;5095430;28;19958;-72
2023/08/25 03:02:13;;;;;;;;;;;24.00;99.90;;;;;;5095144;28;19904;-72
2023/08/25 03:04:39;;;;;;;;;;;24.10;99.90;;;;;;5095084;28;19904;-72
2023/08/25 03:07:04;;;;;;;;;;;24.10;99.90;;;;;;5094637;28;19912;-71
2023/08/25 03:09:30;;;;;;;;;;;24.10;99.90;;;;;;5095213;28;20496;-71
2023/08/25 03:11:56;;;;;;;;;;;24.10;99.90;;;;;;5098617;28;19908;-72
2023/08/25 03:14:21;;;;;;;;;;;24.10;99.90;;;;;;5093191;28;20380;-72
2023/08/25 03:16:48;;;;;;;;;;;24.10;99.90;;;;;;5099150;28;19961;-72
2023/08/25 03:19:14;;;;;;;;;;;24.10;99.90;;;;;;5099004;28;19908;-72
2023/08/25 03:21:39;;;;;;;;;;;24.10;99.90;;;;;;5088843;28;19904;-72
2023/08/25 03:24:05;;;;;;;;;;;24.10;99.90;;;;;;5098550;28;19904;-72
2023/08/25 03:26:31;;;;;;;;;;;24.10;99.90;;;;;;5098821;28;19956;-73
2023/08/25 03:28:56;;;;;;;;;;;24.10;99.90;;;;;;5098260;28;19912;-72
2023/08/25 03:31:22;;;;;;;;;;;24.10;99.90;;;;;;5098575;28;20390;-71
2023/08/25 03:33:47;;;;;;;;;;;24.10;99.90;;;;;;5098742;28;20389;-72
2023/08/25 03:36:13;;;;;;;;;;;24.10;99.90;;;;;;5098408;28;19927;-72
2023/08/25 03:38:38;;;;;;;;;;;24.10;99.90;;;;;;5098751;28;20010;-71
2023/08/25 03:41:04;;;;;;;;;;;24.10;99.90;;;;;;5098436;28;19943;-71
2023/08/25 03:43:30;;;;;;;;;;;24.10;99.90;;;;;;5098377;28;20002;-71
2023/08/25 03:45:55;;;;;;;;;;;24.10;99.90;;;;;;5098396;28;20338;-73
2023/08/25 03:48:21;;;;;;;;;;;24.10;99.90;;;;;;5098243;28;19908;-72
2023/08/25 03:50:47;;;;;;;;;;;24.10;99.90;;;;;;5098288;28;19908;-72
2023/08/25 03:53:13;;;;;;;;;;;24.10;99.90;;;;;;5096228;28;19915;-71
2023/08/25 03:55:38;;;;;;;;;;;24.10;99.90;;;;;;5098401;28;19912;-72
2023/08/25 03:58:03;;;;;;;;;;;24.00;99.90;;;;;;5096768;28;19911;-72
2023/08/25 04:00:29;;;;;;;;;;;24.10;99.90;;;;;;5097811;28;19911;-72
2023/08/25 04:02:54;;;;;;;;;;;24.10;99.90;;;;;;5097849;28;19911;-72
2023/08/25 04:05:20;;;;;;;;;;;24.10;99.90;;;;;;5098256;28;19908;-73
2023/08/25 04:07:45;;;;;;;;;;;24.10;99.90;;;;;;5097219;28;19904;-73
2023/08/25 04:10:11;;;;;;;;;;;24.00;99.90;;;;;;5096623;28;19912;-71
2023/08/25 04:12:37;;;;;;;;;;;24.00;99.90;;;;;;5096518;28;19908;-72
2023/08/25 04:15:03;;;;;;;;;;;24.00;99.90;;;;;;5097812;28;20002;-72
2023/08/25 04:17:30;;;;;;;;;;;24.00;99.90;;;;;;5097857;28;19908;-73
2023/08/25 04:19:55;;;;;;;;;;;23.80;99.90;;;;;;5097523;28;19952;-70
2023/08/25 04:22:21;;;;;;;;;;;23.70;99.90;;;;;;5090034;28;19935;-72
2023/08/25 04:24:47;;;;;;;;;;;23.60;99.90;;;;;;5083807;28;19955;-71
2023/08/25 04:27:12;;;;;;;;;;;23.50;99.90;;;;;;5097321;28;19911;-72
2023/08/25 04:29:38;;;;;;;;;;;23.40;99.90;;;;;;5097419;28;19916;-71
2023/08/25 04:32:03;;;;;;;;;;;23.30;99.90;;;;;;5096140;28;19911;-71
2023/08/25 04:34:29;;;;;;;;;;;23.20;99.90;;;;;;5096929;28;19978;-70
2023/08/25 04:36:54;;;;;;;;;;;23.20;99.90;;;;;;5097139;28;19915;-71
2023/08/25 04:39:20;;;;;;;;;;;23.10;99.90;;;;;;5083365;28;19999;-71
2023/08/25 04:41:45;;;;;;;;;;;23.10;99.90;;;;;;5083886;28;19910;-71
2023/08/25 04:44:11;;;;;;;;;;;23.00;99.90;;;;;;5097109;28;20048;-72
2023/08/25 04:46:36;;;;;;;;;;;23.00;99.90;;;;;;5096958;28;19953;-72
2023/08/25 04:49:02;;;;;;;;;;;22.90;99.90;;;;;;5097153;28;19994;-71
2023/08/25 04:51:28;;;;;;;;;;;22.90;99.90;;;;;;5095314;28;19986;-71
2023/08/25 04:53:53;;;;;;;;;;;22.80;99.90;;;;;;5097095;28;19908;-70
2023/08/25 04:56:19;;;;;;;;;;;22.70;99.90;;;;;;5096551;28;19915;-71
2023/08/25 04:58:44;;;;;;;;;;;22.70;99.90;;;;;;5096731;28;19914;-71
2023/08/25 05:01:10;;;;;;;;;;;22.70;99.90;;;;;;5093179;28;19955;-71
2023/08/25 05:03:35;;;;;;;;;;;22.70;99.90;;;;;;5096851;28;20389;-72
2023/08/25 05:06:01;;;;;;;;;;;22.70;99.90;;;;;;5096706;28;20440;-71
2023/08/25 05:08:26;;;;;;;;;;;22.70;99.90;;;;;;5096629;28;19908;-71
2023/08/25 05:10:52;;;;;;;;;;;22.70;99.90;;;;;;5096470;28;19991;-72
2023/08/25 05:13:17;;;;;;;;;;;22.70;99.90;;;;;;5096682;28;19908;-71
2023/08/25 05:15:43;;;;;;;;;;;22.60;99.90;;;;;;5096243;28;20000;-71
2023/08/25 05:18:09;;;;;;;;;;;22.60;99.90;;;;;;5096788;28;19994;-71
2023/08/25 05:20:34;;;;;;;;;;;22.60;99.90;;;;;;5093423;28;19972;-71
2023/08/25 05:23:00;;;;;;;;;;;22.70;99.90;;;;;;5096404;28;19994;-73
2023/08/25 05:25:25;;;;;;;;;;;22.70;99.90;;;;;;5096099;28;19919;-72
2023/08/25 05:27:51;;;;;;;;;;;22.80;99.90;;;;;;5094626;28;20199;-72
2023/08/25 05:30:16;;;;;;;;;;;22.80;99.90;;;;;;5096062;28;19943;-72
2023/08/25 05:32:42;;;;;;;;;;;22.80;99.90;;;;;;5095179;28;19927;-72
2023/08/25 05:35:07;;;;;;;;;;;22.80;99.90;;;;;;5094954;28;19939;-73
2023/08/25 05:37:33;;;;;;;;;;;22.90;99.90;;;;;;5092482;28;19908;-73
2023/08/25 05:39:59;;;;;;;;;;;22.90;99.90;;;;;;5096446;28;19915;-72
2023/08/25 05:42:27;;;;;;;;;;;22.90;99.90;;;;;;5095816;28;19908;-73
2023/08/25 05:44:52;;;;;;;;;;;22.90;99.90;;;;;;5096169;28;20279;-72
2023/08/25 05:47:18;;;;;;;;;;;22.90;99.90;;;;;;5094784;28;19908;-72
2023/08/25 05:49:43;;;;;;;;;;;22.90;99.90;;;;;;5090330;28;19912;-71
2023/08/25 05:52:09;;;;;;;;;;;22.90;99.90;;;;;;5075873;28;19908;-72
2023/08/25 05:54:34;;;;;;;;;;;22.90;99.90;;;;;;5094338;28;20268;-72
2023/08/25 05:57:00;;;;;;;;;;;22.90;99.90;;;;;;5096129;28;20280;-72
2023/08/25 05:59:25;;;;;;;;;;;23.00;99.90;;;;;;5094352;28;19938;-73
2023/08/25 06:01:51;;;;;;;;;;;23.00;99.90;;;;;;5094643;28;19929;-72
2023/08/25 06:04:16;;;;;;;;;;;23.00;99.90;;;;;;5094949;28;19907;-73
2023/08/25 06:06:44;;;;;;;;;;;23.00;99.90;;;;;;5096134;28;19908;-73
2023/08/25 06:09:09;;;;;;;;;;;23.10;99.90;;;;;;5095680;28;19908;-75
2023/08/25 06:11:35;;;;;;;;;;;23.10;99.90;;;;;;5095813;28;19911;-74
2023/08/25 06:14:01;;;;;;;;;;;23.10;99.90;;;;;;5092489;28;20572;-73
2023/08/25 06:16:27;;;;;;;;;;;23.20;99.90;;;;;;5089901;28;19915;-72
2023/08/25 06:18:52;;;;;;;;;;;23.20;99.90;;;;;;5095845;28;19907;-73
2023/08/25 06:21:18;;;;;;;;;;;23.20;99.90;;;;;;5095844;28;19915;-73
2023/08/25 06:23:44;;;;;;;;;;;23.20;99.90;;;;;;5095839;28;19912;-73
2023/08/25 06:26:09;;;;;;;;;;;23.30;99.90;;;;;;5083684;28;19920;-73
2023/08/25 06:28:35;;;;;;;;;;;23.40;99.90;;;;;;5090970;28;20054;-73
2023/08/25 06:31:01;;;;;;;;;;;23.40;99.90;;;;;;5095754;28;19998;-73
2023/08/25 06:33:29;;;;;;;;;;;23.50;99.90;;;;;;5095426;28;20302;-73
2023/08/25 06:35:56;;;;;;;;;;;23.50;99.90;;;;;;5094531;28;19904;-73
2023/08/25 06:38:22;;;;;;;;;;;23.60;99.90;;;;;;5095606;28;19912;-72
2023/08/25 06:40:48;;;;;;;;;;;23.60;99.90;;;;;;5082143;28;19912;-73
2023/08/25 06:43:13;;;;;;;;;;;23.60;99.90;;;;;;5095482;28;20290;-73
2023/08/25 06:45:39;;;;;;;;;;;23.60;99.90;;;;;;5097087;28;19984;-73
2023/08/25 06:48:04;;;;;;;;;;;23.60;99.90;;;;;;5099393;28;19912;-76
2023/08/25 06:50:30;;;;;;;;;;;23.60;99.90;;;;;;5099464;28;19904;-74
2023/08/25 06:52:55;;;;;;;;;;;23.70;99.90;;;;;;5090990;28;19911;-72
2023/08/25 06:55:22;;;;;;;;;;;23.70;99.90;;;;;;5096370;28;19904;-74
2023/08/25 06:57:48;;;;;;;;;;;23.80;99.90;;;;;;5095311;28;19930;-74
2023/08/25 07:00:13;;;;;;;;;;;23.90;99.90;;;;;;5094407;28;19907;-74
2023/08/25 07:02:40;;;;;;;;;;;23.90;99.90;;;;;;5097620;28;19908;-74
2023/08/25 07:05:06;;;;;;;;;;;24.00;99.90;;;;;;5094546;28;19904;-74
2023/08/25 07:07:32;;;;;;;;;;;24.00;99.90;;;;;;5095171;28;19961;-73
2023/08/25 07:09:58;;;;;;;;;;;24.00;99.90;;;;;;5097087;28;19935;-73
2023/08/25 07:12:23;;;;;;;;;;;24.10;99.90;;;;;;5091443;28;19989;-73
2023/08/25 07:14:49;;;;;;;;;;;24.10;99.90;;;;;;5095672;28;19908;-73
2023/08/25 07:17:15;;;;;;;;;;;24.20;99.90;;;;;;5094471;28;19908;-74
2023/08/25 07:19:40;;;;;;;;;;;24.20;99.90;;;;;;5093558;28;19904;-73
2023/08/25 07:22:06;;;;;;;;;;;24.20;99.90;;;;;;5093341;28;19911;-72
2023/08/25 07:24:31;;;;;;;;;;;24.20;99.90;;;;;;5093717;28;19915;-72
2023/08/25 07:26:57;;;;;;;;;;;24.20;99.90;;;;;;5092585;28;19912;-73
2023/08/25 07:29:22;;;;;;;;;;;24.20;99.90;;;;;;5096927;28;19908;-73
2023/08/25 07:31:48;;;;;;;;;;;24.30;99.90;;;;;;5092486;28;20702;-73
2023/08/25 07:34:14;;;;;;;;;;;24.40;99.90;;;;;;5092814;28;19908;-73
2023/08/25 07:36:39;;;;;;;;;;;24.40;99.90;;;;;;5094817;28;20002;-74
2023/08/25 07:39:05;;;;;;;;;;;24.40;99.90;;;;;;5097009;28;19904;-72
2023/08/25 07:41:30;;;;;;;;;;;24.40;99.90;;;;;;5094554;28;19955;-74
2023/08/25 07:43:57;;;;;;;;;;;24.50;99.90;;;;;;5092450;28;20333;-72
2023/08/25 07:46:23;;;;;;;;;;;24.50;99.90;;;;;;5095066;28;20044;-74
2023/08/25 07:48:50;;;;;;;;;;;24.60;99.90;;;;;;5095898;28;19957;-74
2023/08/25 07:51:16;;;;;;;;;;;24.50;99.90;;;;;;5094766;28;19912;-72
2023/08/25 07:53:41;;;;;;;;;;;24.40;99.90;;;;;;5093683;28;19911;-72
2023/08/25 07:56:07;;;;;;;;;;;24.50;99.90;;;;;;5095574;28;19907;-75
2023/08/25 07:58:32;;;;;;;;;;;24.50;99.90;;;;;;5096040;28;19904;-74
2023/08/25 08:00:58;;;;;;;;;;;24.50;99.90;;;;;;5095218;28;19912;-73
2023/08/25 08:03:24;;;;;;;;;;;24.60;99.90;;;;;;5096325;28;19908;-73
2023/08/25 08:05:49;;;;;;;;;;;24.60;99.90;;;;;;5095097;28;19915;-74
2023/08/25 08:08:15;;;;;;;;;;;24.70;99.90;;;;;;5095630;28;20018;-71
2023/08/25 08:10:40;;;;;;;;;;;24.60;99.90;;;;;;5095715;28;19995;-72
2023/08/25 08:13:06;;;;;;;;;;;24.60;99.90;;;;;;5090257;28;19958;-74
2023/08/25 08:15:32;;;;;;;;;;;24.50;99.90;;;;;;5090688;28;19905;-75
2023/08/25 08:17:58;;;;;;;;;;;24.40;99.90;;;;;;5094866;28;20407;-74
2023/08/25 08:20:24;;;;;;;;;;;24.40;99.90;;;;;;5091934;28;19905;-73
2023/08/25 08:22:50;;;;;;;;;;;24.50;99.90;;;;;;5093739;28;19964;-74
2023/08/25 08:25:15;;;;;;;;;;;24.50;99.90;;;;;;5094520;28;19920;-74
2023/08/25 08:27:41;;;;;;;;;;;24.40;99.90;;;;;;5092100;28;19916;-72
2023/08/25 08:30:08;;;;;;;;;;;24.40;99.90;;;;;;5094539;28;19907;-74
2023/08/25 08:32:37;;;;;;;;;;;24.40;99.90;;;;;;5092015;28;19939;-74
2023/08/25 08:35:09;;;;;;;;;;;24.40;99.90;;;;;;5094531;28;19953;-72
2023/08/25 08:37:38;;;;;;;;;;;24.30;99.90;;;;;;5095619;28;19945;-73
2023/08/25 08:40:09;;;;;;;;;;;24.30;99.90;;;;;;5089790;28;19904;-71
2023/08/25 08:42:36;;;;;;;;;;;24.30;99.90;;;;;;5095529;28;20389;-72
2023/08/25 08:45:03;;;;;;;;;;;24.30;99.90;;;;;;5095598;28;19915;-75
2023/08/25 08:47:29;;;;;;;;;;;24.30;99.90;;;;;;5096296;28;19994;-73
2023/08/25 08:49:57;;;;;;;;;;;24.40;99.90;;;;;;5096090;28;19954;-72
2023/08/25 08:52:22;;;;;;;;;;;24.40;99.90;;;;;;5092200;28;19966;-74
2023/08/25 08:54:48;;;;;;;;;;;24.40;99.90;;;;;;5091605;28;19912;-74
2023/08/25 08:57:15;;;;;;;;;;;24.30;99.90;;;;;;5094055;28;19908;-71
2023/08/25 08:59:41;;;;;;;;;;;24.40;99.90;;;;;;5089594;28;19963;-73
2023/08/25 09:02:08;;;;;;;;;;;24.40;99.90;;;;;;5092707;28;19908;-73
2023/08/25 09:04:36;;;;;;;;;;;24.40;99.90;;;;;;5091180;28;19904;-72
2023/08/25 09:07:03;;;;;;;;;;;24.40;99.90;;;;;;5092936;28;19912;-73
2023/08/25 09:09:29;;;;;;;;;;;24.50;99.90;;;;;;5090433;28;19958;-74
2023/08/25 09:11:54;;;;;;;;;;;24.60;99.90;;;;;;5095533;28;19908;-72
2023/08/25 09:14:24;;;;;;;;;;;24.80;99.90;;;;;;5092314;28;20287;-73
2023/08/25 09:16:52;;;;;;;;;;;24.80;99.90;;;;;;5094736;28;19923;-72
2023/08/25 09:19:18;;;;;;;;;;;24.80;99.90;;;;;;5091888;28;19912;-72
2023/08/25 09:21:47;;;;;;;;;;;24.80;99.90;;;;;;5091633;28;19911;-75
2023/08/25 09:24:17;;;;;;;;;;;24.80;99.90;;;;;;5092123;28;19923;-73
2023/08/25 09:26:43;;;;;;;;;;;24.70;99.90;;;;;;5093607;28;19908;-73
2023/08/25 09:29:10;;;;;;;;;;;24.60;99.90;;;;;;5093662;28;19916;-72
2023/08/25 09:31:36;;;;;;;;;;;24.60;99.90;;;;;;5094056;28;20734;-72
2023/08/25 09:34:03;;;;;;;;;;;24.60;99.90;;;;;;5091540;28;19957;-73
2023/08/25 09:36:29;;;;;;;;;;;24.70;99.90;;;;;;5095490;28;19912;-73
2023/08/25 09:38:55;;;;;;;;;;;24.70;99.90;;;;;;5091507;28;19904;-71
2023/08/25 09:41:24;;;;;;;;;;;24.80;99.90;;;;;;5093984;28;19912;-72
2023/08/25 09:43:50;;;;;;;;;;;24.80;99.90;;;;;;5095730;28;20420;-73
2023/08/25 09:46:15;;;;;;;;;;;25.00;99.90;;;;;;5096339;28;19955;-72
2023/08/25 09:48:44;;;;;;;;;;;25.10;99.90;;;;;;5096072;28;19908;-75
2023/08/25 09:51:10;;;;;;;;;;;25.10;99.90;;;;;;5096218;28;19904;-74
2023/08/25 09:53:37;;;;;;;;;;;25.20;99.90;;;;;;5095720;28;19908;-71
2023/08/25 09:56:06;;;;;;;;;;;25.10;99.90;;;;;;5095967;28;19908;-70
2023/08/25 09:58:33;;;;;;;;;;;25.10;99.90;;;;;;5095778;28;19996;-71
2023/08/25 10:00:59;;;;;;;;;;;25.10;99.90;;;;;;5096002;28;19919;-70
2023/08/25 10:03:25;;;;;;;;;;;25.10;99.90;;;;;;5089515;28;19904;-71
2023/08/25 10:05:50;;;;;;;;;;;25.10;99.90;;;;;;5075922;28;19909;-71
2023/08/25 10:08:16;;;;;;;;;;;24.90;99.90;;;;;;5089213;28;19913;-70
2023/08/25 10:10:43;;;;;;;;;;;24.90;99.90;;;;;;5089121;28;19999;-69
2023/08/25 10:13:11;;;;;;;;;;;24.90;99.90;;;;;;5082757;28;19955;-69
2023/08/25 10:15:37;;;;;;;;;;;24.90;99.90;;;;;;5075573;28;19908;-70
2023/08/25 10:18:06;;;;;;;;;;;24.90;99.90;;;;;;5089179;28;20398;-71
2023/08/25 10:20:32;;;;;;;;;;;24.90;99.90;;;;;;5089464;28;19904;-71
2023/08/25 10:22:59;;;;;;;;;;;25.00;99.90;;;;;;5088448;28;19948;-70
2023/08/25 10:25:28;;;;;;;;;;;24.90;99.90;;;;;;5093659;28;19920;-70
2023/08/25 10:27:55;;;;;;;;;;;24.90;99.90;;;;;;5099688;28;19908;-71
2023/08/25 10:30:21;;;;;;;;;;;24.90;99.90;;;;;;5085550;28;19912;-71
2023/08/25 10:32:49;;;;;;;;;;;25.00;99.90;;;;;;5100043;28;19911;-73
2023/08/25 10:35:15;;;;;;;;;;;24.90;99.90;;;;;;5099921;28;19908;-74
2023/08/25 10:37:41;;;;;;;;;;;24.80;99.90;;;;;;5098474;28;19975;-74
2023/08/25 10:40:08;;;;;;;;;;;24.80;99.90;;;;;;5099895;28;19986;-74
2023/08/25 10:42:35;;;;;;;;;;;24.60;99.90;;;;;;5095923;28;20458;-74
2023/08/25 10:45:01;;;;;;;;;;;24.60;99.90;;;;;;5094856;28;19908;-75
2023/08/25 10:47:27;;;;;;;;;;;24.60;99.90;;;;;;5094557;28;19904;-74
2023/08/25 10:49:53;;;;;;;;;;;24.60;99.90;;;;;;5087370;28;19947;-74
2023/08/25 10:52:19;;;;;;;;;;;24.50;99.90;;;;;;5097976;28;19911;-74
2023/08/25 10:54:46;;;;;;;;;;;24.50;99.90;;;;;;5098154;28;19908;-74
2023/08/25 10:57:17;;;;;;;;;;;24.50;99.90;;;;;;5099082;28;19904;-74
2023/08/25 10:59:45;;;;;;;;;;;24.50;99.90;;;;;;5097871;28;19920;-75
2023/08/25 11:02:11;;;;;;;;;;;24.50;99.90;;;;;;5099402;28;20321;-72
2023/08/25 11:04:37;;;;;;;;;;;24.60;99.90;;;;;;5086007;28;19908;-76
2023/08/25 11:07:03;;;;;;;;;;;24.60;99.90;;;;;;5098669;28;19904;-74
2023/08/25 11:09:32;;;;;;;;;;;24.70;99.90;;;;;;5099151;28;19979;-74
2023/08/25 11:12:06;;;;;;;;;;;24.90;99.90;;;;;;5098870;28;19947;-75
2023/08/25 11:14:31;;;;;;;;;;;25.10;99.90;;;;;;5086307;28;19908;-72
2023/08/25 11:16:57;;;;;;;;;;;25.20;99.90;;;;;;5099137;28;19910;-75
2023/08/25 11:19:24;;;;;;;;;;;25.30;99.90;;;;;;5095971;28;19904;-74
2023/08/25 11:22:03;;;;;;;;;;;25.50;99.90;;;;;;5091709;28;19908;-75
2023/08/25 11:24:29;;;;;;;;;;;25.40;99.90;;;;;;5093805;28;19968;-74
2023/08/25 11:27:05;;;;;;;;;;;25.40;99.90;;;;;;5097166;28;19908;-75
2023/08/25 11:29:31;;;;;;;;;;;25.30;99.90;;;;;;5098582;28;19911;-76
2023/08/25 11:31:56;;;;;;;;;;;25.30;99.90;;;;;;5098602;28;19908;-75
2023/08/25 11:34:22;;;;;;;;;;;25.30;99.90;;;;;;5098853;28;19911;-74
2023/08/25 11:36:48;;;;;;;;;;;25.20;99.90;;;;;;5097320;28;19911;-74
2023/08/25 11:39:18;;;;;;;;;;;25.30;99.90;;;;;;5098840;28;20358;-75
2023/08/25 11:41:44;;;;;;;;;;;25.30;99.90;;;;;;5098663;28;19904;-74
2023/08/25 11:44:11;;;;;;;;;;;25.30;99.90;;;;;;5095271;28;20372;-74
2023/08/25 11:46:36;;;;;;;;;;;25.40;99.90;;;;;;5078243;28;20335;-77
2023/08/25 11:49:02;;;;;;;;;;;25.30;99.90;;;;;;5091494;28;19918;-75
2023/08/25 11:51:28;;;;;;;;;;;25.20;99.90;;;;;;5086824;28;19908;-74
2023/08/25 11:53:53;;;;;;;;;;;25.10;99.90;;;;;;5098470;28;19904;-75
2023/08/25 11:56:19;;;;;;;;;;;25.20;99.90;;;;;;5097790;28;19946;-76
2023/08/25 11:58:48;;;;;;;;;;;25.20;99.90;;;;;;5098109;28;19904;-75
2023/08/25 12:01:14;;;;;;;;;;;25.30;99.90;;;;;;5097867;28;19911;-74
2023/08/25 12:03:43;;;;;;;;;;;25.30;99.90;;;;;;5096978;28;19904;-76
2023/08/25 12:06:10;;;;;;;;;;;25.30;99.90;;;;;;5098272;28;19969;-74
2023/08/25 12:08:37;;;;;;;;;;;25.50;99.90;;;;;;5096875;28;19908;-74
2023/08/25 12:11:04;;;;;;;;;;;25.50;99.90;;;;;;5096598;28;19962;-75
2023/08/25 12:13:31;;;;;;;;;;;25.60;99.90;;;;;;5096458;28;19949;-78
2023/08/25 12:15:57;;;;;;;;;;;25.80;99.90;;;;;;5094452;28;20314;-75
2023/08/25 12:18:23;;;;;;;;;;;25.90;99.90;;;;;;5095112;28;19908;-75
2023/08/25 12:20:49;;;;;;;;;;;26.10;99.90;;;;;;5094745;28;19939;-78
2023/08/25 12:23:15;;;;;;;;;;;26.40;99.90;;;;;;5097697;28;20384;-74
2023/08/25 12:25:44;;;;;;;;;;;26.70;99.90;;;;;;5097454;28;20020;-73
2023/08/25 12:28:13;;;;;;;;;;;26.70;99.90;;;;;;5096014;28;19904;-76
2023/08/25 12:30:39;;;;;;;;;;;26.80;99.90;;;;;;5097810;28;19919;-75
2023/08/25 12:33:05;;;;;;;;;;;26.80;99.90;;;;;;5097657;28;20318;-78
2023/08/25 12:35:31;;;;;;;;;;;27.00;99.90;;;;;;5096254;28;19904;-75
2023/08/25 12:37:57;;;;;;;;;;;26.80;99.90;;;;;;5097394;28;19911;-79
2023/08/25 12:40:24;;;;;;;;;;;27.00;99.90;;;;;;5097082;28;19908;-74
2023/08/25 12:42:51;;;;;;;;;;;27.00;99.90;;;;;;5094995;28;19904;-74
2023/08/25 12:45:18;;;;;;;;;;;27.10;99.90;;;;;;5097236;28;19968;-75
2023/08/25 12:47:44;;;;;;;;;;;27.10;99.90;;;;;;5097341;28;19908;-72
2023/08/25 12:50:10;;;;;;;;;;;27.10;99.90;;;;;;5096990;28;19933;-75
2023/08/25 12:52:36;;;;;;;;;;;27.00;99.90;;;;;;5093264;28;19915;-75
2023/08/25 12:55:03;;;;;;;;;;;26.90;99.90;;;;;;5087348;28;19992;-75
2023/08/25 12:57:29;;;;;;;;;;;26.80;99.90;;;;;;5096786;28;19911;-75
2023/08/25 12:59:54;;;;;;;;;;;26.70;99.90;;;;;;5096892;28;19995;-75
2023/08/25 13:02:20;;;;;;;;;;;26.60;99.90;;;;;;5095329;28;19943;-75
2023/08/25 13:04:45;;;;;;;;;;;26.60;99.90;;;;;;5084426;28;19904;-74
2023/08/25 13:07:12;;;;;;;;;;;26.50;99.90;;;;;;5096750;28;19939;-75
2023/08/25 13:09:38;;;;;;;;;;;26.50;99.90;;;;;;5096817;28;20253;-73
2023/08/25 13:12:04;;;;;;;;;;;26.40;99.90;;;;;;5095550;28;19958;-73
2023/08/25 13:14:29;;;;;;;;;;;26.20;99.90;;;;;;5095376;28;19908;-74
2023/08/25 13:16:55;;;;;;;;;;;26.20;99.90;;;;;;5095264;28;19908;-72
2023/08/25 13:19:20;;;;;;;;;;;26.20;99.90;;;;;;5096897;28;20253;-72
2023/08/25 13:21:46;;;;;;;;;;;26.10;99.90;;;;;;5087680;28;20368;-73
2023/08/25 13:24:11;;;;;;;;;;;26.00;99.90;;;;;;5095117;28;20296;-71
2023/08/25 13:26:37;;;;;;;;;;;25.90;99.90;;;;;;5094721;28;19914;-72
2023/08/25 13:29:03;;;;;;;;;;;25.90;99.90;;;;;;5094827;28;20046;-72
2023/08/25 13:31:30;;;;;;;;;;;26.10;99.90;;;;;;5096112;28;20403;-73
2023/08/25 13:33:57;;;;;;;;;;;26.10;99.90;;;;;;5096356;28;19908;-73
2023/08/25 13:36:23;;;;;;;;;;;26.20;99.90;;;;;;5096334;28;20300;-75
2023/08/25 13:38:48;;;;;;;;;;;26.30;99.90;;;;;;5096456;28;19908;-74
2023/08/25 13:41:14;;;;;;;;;;;26.30;99.90;;;;;;5096034;28;19959;-73
2023/08/25 13:43:39;;;;;;;;;;;26.40;99.90;;;;;;5094517;28;19912;-73
2023/08/25 13:46:06;;;;;;;;;;;26.40;99.90;;;;;;5096308;28;19915;-73
2023/08/25 13:48:32;;;;;;;;;;;26.50;99.90;;;;;;5095919;28;19911;-74
2023/08/25 13:50:58;;;;;;;;;;;26.40;99.90;;;;;;5080964;28;19991;-74
2023/08/25 13:53:23;;;;;;;;;;;26.30;99.90;;;;;;5095960;28;19940;-73
2023/08/25 13:55:49;;;;;;;;;;;26.20;99.90;;;;;;5082396;28;19955;-71
2023/08/25 13:58:14;;;;;;;;;;;26.00;99.90;;;;;;5088558;28;19973;-72
2023/08/25 14:00:40;;;;;;;;;;;26.00;99.90;;;;;;5096035;28;20398;-72
2023/08/25 14:03:06;;;;;;;;;;;26.00;99.90;;;;;;5094430;28;19923;-73
2023/08/25 14:05:31;;;;;;;;;;;25.80;99.90;;;;;;5094846;28;20282;-73
2023/08/25 14:07:57;;;;;;;;;;;25.80;99.90;;;;;;5095241;28;19912;-72
2023/08/25 14:10:25;;;;;;;;;;;25.70;99.90;;;;;;5094600;28;19947;-73